createdAt,value
2022-11-11T00:01:38.904Z,8.60
2022-11-11T00:04:25.195Z,8.59
2022-11-11T00:07:11.185Z,8.66
2022-11-11T00:09:58.228Z,8.70
2022-11-11T00:12:45.076Z,8.69
2022-11-11T00:15:31.804Z,8.65
2022-11-11T00:18:36.414Z,8.57
2022-11-11T00:21:40.876Z,8.55
2022-11-11T00:24:46.936Z,8.47
2022-11-11T00:27:33.024Z,8.49
2022-11-11T00:30:18.492Z,8.47
2022-11-11T00:33:04.461Z,8.51
2022-11-11T00:35:56.148Z,8.48
2022-11-11T00:38:48.025Z,8.46
2022-11-11T00:41:33.942Z,8.48
2022-11-11T00:44:19.776Z,8.32
2022-11-11T00:47:24.118Z,8.45
2022-11-11T00:50:32.871Z,8.41
2022-11-11T00:53:26.298Z,8.41
2022-11-11T00:56:12.932Z,8.40
2022-11-11T00:58:59.054Z,8.39
2022-11-11T01:01:44.850Z,8.39
2022-11-11T01:04:30.764Z,8.34
2022-11-11T01:07:16.500Z,8.25
2022-11-11T01:10:02.584Z,8.28
2022-11-11T01:12:48.157Z,8.37
2022-11-11T01:15:34.063Z,8.43
2022-11-11T01:18:25.627Z,8.32
2022-11-11T01:21:13.868Z,8.27
2022-11-11T01:24:01.005Z,8.22
2022-11-11T01:26:46.737Z,8.22
2022-11-11T01:29:32.852Z,8.25
2022-11-11T01:32:18.522Z,8.26
2022-11-11T01:35:04.458Z,8.17
2022-11-11T01:37:50.249Z,8.21
2022-11-11T01:40:47.533Z,8.31
2022-11-11T01:43:33.308Z,8.23
2022-11-11T01:46:23.926Z,8.21
2022-11-11T01:49:21.762Z,8.25
2022-11-11T01:52:14.811Z,8.17
2022-11-11T01:55:09.809Z,8.16
2022-11-11T01:58:01.835Z,8.29
2022-11-11T02:00:47.391Z,8.19
2022-11-11T02:03:35.528Z,8.17
2022-11-11T02:06:21.602Z,8.14
2022-11-11T02:09:07.738Z,8.08
2022-11-11T02:12:13.120Z,8.13
2022-11-11T02:14:59.784Z,8.08
2022-11-11T02:17:47.679Z,8.08
2022-11-11T02:20:36.334Z,8.07
2022-11-11T02:23:24.569Z,8.08
2022-11-11T02:26:13.793Z,8.11
2022-11-11T02:29:02.794Z,8.12
2022-11-11T02:31:49.522Z,8.14
2022-11-11T02:34:35.454Z,8.07
2022-11-11T02:37:23.708Z,8.04
2022-11-11T02:40:11.562Z,8.01
2022-11-11T02:42:59.369Z,7.99
2022-11-11T02:45:45.641Z,7.99
2022-11-11T02:48:31.290Z,7.96
2022-11-11T02:51:16.952Z,7.97
2022-11-11T02:54:02.779Z,8.01
2022-11-11T02:57:06.728Z,7.98
2022-11-11T02:59:52.802Z,8.04
2022-11-11T03:02:38.510Z,7.99
2022-11-11T03:05:24.083Z,8.01
2022-11-11T03:08:10.101Z,8.01
2022-11-11T03:10:56.099Z,7.94
2022-11-11T03:13:42.036Z,8.03
2022-11-11T03:16:46.760Z,8.02
2022-11-11T03:19:32.597Z,7.97
2022-11-11T03:25:38.963Z,7.81
2022-11-11T03:28:25.751Z,7.80
2022-11-11T03:31:11.663Z,7.83
2022-11-11T03:34:17.327Z,7.86
2022-11-11T03:37:21.745Z,7.72
2022-11-11T03:40:08.472Z,7.75
2022-11-11T03:42:55.403Z,7.91
2022-11-11T03:45:43.821Z,7.78
2022-11-11T03:48:31.141Z,7.84
2022-11-11T03:51:17.024Z,7.78
2022-11-11T03:54:02.952Z,7.82
2022-11-11T03:56:48.593Z,7.71
2022-11-11T03:59:34.702Z,7.74
2022-11-11T04:02:39.693Z,7.73
2022-11-11T04:05:44.944Z,7.76
2022-11-11T04:08:50.483Z,7.73
2022-11-11T04:11:40.501Z,7.63
2022-11-11T04:14:45.035Z,7.66
2022-11-11T04:17:31.453Z,7.69
2022-11-11T04:20:37.194Z,7.64
2022-11-11T04:23:23.283Z,7.63
2022-11-11T04:26:09.176Z,7.62
2022-11-11T04:29:13.250Z,7.67
2022-11-11T04:32:19.342Z,7.70
2022-11-11T04:35:09.734Z,7.67
2022-11-11T04:38:15.417Z,7.63
2022-11-11T04:41:05.487Z,7.59
2022-11-11T04:44:10.387Z,7.63
2022-11-11T04:46:55.755Z,7.61
2022-11-11T04:49:41.857Z,7.64
2022-11-11T04:52:28.712Z,7.56
2022-11-11T04:55:35.062Z,7.48
2022-11-11T04:58:24.765Z,7.41
2022-11-11T05:01:11.910Z,7.47
2022-11-11T05:03:58.733Z,7.38
2022-11-11T05:07:03.838Z,7.39
2022-11-11T05:09:50.519Z,7.42
2022-11-11T05:12:37.443Z,7.39
2022-11-11T05:15:42.420Z,7.36
2022-11-11T05:18:48.269Z,7.37
2022-11-11T05:21:36.495Z,7.43
2022-11-11T05:24:43.017Z,7.38
2022-11-11T05:27:31.944Z,7.45
2022-11-11T05:30:18.921Z,7.37
2022-11-11T05:33:05.859Z,7.37
2022-11-11T05:35:51.990Z,7.36
2022-11-11T05:38:38.520Z,7.34
2022-11-11T05:41:25.901Z,7.42
2022-11-11T05:44:12.000Z,7.40
2022-11-11T05:46:58.605Z,7.37
2022-11-11T05:49:44.870Z,7.40
2022-11-11T05:52:32.195Z,7.30
2022-11-11T05:55:18.353Z,7.42
2022-11-11T05:58:04.509Z,7.37
2022-11-11T06:00:51.040Z,7.37
2022-11-11T06:03:36.551Z,7.45
2022-11-11T06:06:22.337Z,7.41
2022-11-11T06:09:13.882Z,7.48
2022-11-11T06:12:00.511Z,7.50
2022-11-11T06:14:46.461Z,7.39
2022-11-11T06:17:33.967Z,7.40
2022-11-11T06:20:20.039Z,7.44
2022-11-11T06:23:05.969Z,7.51
2022-11-11T06:26:10.444Z,7.52
2022-11-11T06:28:57.533Z,7.44
2022-11-11T06:31:43.503Z,7.57
2022-11-11T06:34:29.840Z,7.60
2022-11-11T06:37:15.904Z,7.62
2022-11-11T06:40:01.691Z,7.45
2022-11-11T06:42:47.712Z,7.53
2022-11-11T06:45:36.234Z,7.65
2022-11-11T06:48:23.822Z,7.67
2022-11-11T06:51:11.428Z,7.60
2022-11-11T06:53:57.177Z,7.66
2022-11-11T06:56:43.489Z,7.78
2022-11-11T06:59:29.295Z,7.76
2022-11-11T07:02:16.924Z,7.87
2022-11-11T07:05:03.685Z,7.93
2022-11-11T07:07:49.731Z,7.97
2022-11-11T07:10:40.614Z,8.06
2022-11-11T07:13:26.783Z,8.26
2022-11-11T07:16:13.480Z,8.35
2022-11-11T07:18:59.521Z,8.47
2022-11-11T07:21:46.474Z,8.75
2022-11-11T07:24:32.846Z,8.66
2022-11-11T07:27:18.724Z,8.69
2022-11-11T07:30:07.184Z,8.81
2022-11-11T07:32:53.897Z,8.77
2022-11-11T07:35:40.031Z,8.92
2022-11-11T07:38:26.089Z,9.04
2022-11-11T07:41:12.399Z,9.16
2022-11-11T07:43:58.243Z,9.30
2022-11-11T07:46:44.800Z,9.43
2022-11-11T07:49:30.834Z,9.64
2022-11-11T07:52:16.721Z,9.74
2022-11-11T07:55:02.477Z,9.89
2022-11-11T07:57:52.222Z,10.02
2022-11-11T08:00:38.221Z,10.28
2022-11-11T08:03:24.679Z,10.44
2022-11-11T08:06:10.917Z,10.54
2022-11-11T08:08:56.768Z,10.65
2022-11-11T08:12:00.988Z,10.76
2022-11-11T08:14:46.984Z,10.85
2022-11-11T08:17:36.301Z,10.93
2022-11-11T08:20:21.867Z,11.26
2022-11-11T08:24:10.268Z,11.71
2022-11-11T08:26:16.394Z,12.28
2022-11-11T08:29:02.251Z,12.68
2022-11-11T08:31:47.934Z,12.48
2022-11-11T08:34:33.823Z,12.63
2022-11-11T08:37:19.929Z,12.43
2022-11-11T08:40:06.215Z,12.31
2022-11-11T08:42:56.098Z,12.61
2022-11-11T08:45:41.947Z,12.96
2022-11-11T08:48:27.912Z,13.59
2022-11-11T08:51:14.199Z,13.82
2022-11-11T08:53:59.873Z,13.77
2022-11-11T08:56:45.659Z,14.14
2022-11-11T08:59:31.180Z,14.00
2022-11-11T09:02:17.434Z,14.34
2022-11-11T09:05:03.971Z,14.29
2022-11-11T09:07:49.694Z,14.58
2022-11-11T09:10:35.875Z,14.65
2022-11-11T09:13:21.539Z,14.92
2022-11-11T09:16:08.957Z,14.99
2022-11-11T09:18:54.954Z,14.91
2022-11-11T09:21:40.900Z,14.98
2022-11-11T09:24:26.740Z,14.81
2022-11-11T09:27:12.611Z,15.06
2022-11-11T09:29:58.357Z,15.29
2022-11-11T09:32:44.344Z,15.33
2022-11-11T09:35:30.562Z,15.46
2022-11-11T09:38:16.207Z,15.54
2022-11-11T09:41:10.992Z,15.53
2022-11-11T09:43:59.784Z,15.50
2022-11-11T09:47:24.012Z,15.26
2022-11-11T09:50:18.933Z,15.24
2022-11-11T09:53:18.264Z,15.39
2022-11-11T09:56:29.809Z,15.57
2022-11-11T09:59:27.537Z,15.56
2022-11-11T10:02:26.427Z,15.77
2022-11-11T10:05:19.543Z,15.91
2022-11-11T10:08:17.218Z,16.06
2022-11-11T10:11:11.884Z,16.09
2022-11-11T10:13:58.129Z,15.90
2022-11-11T10:17:05.147Z,15.78
2022-11-11T10:20:17.878Z,15.75
2022-11-11T10:23:13.621Z,15.95
2022-11-11T10:26:07.145Z,16.06
2022-11-11T10:28:53.713Z,16.12
2022-11-11T10:31:41.901Z,15.87
2022-11-11T10:34:33.457Z,15.92
2022-11-11T10:37:23.686Z,15.99
2022-11-11T10:40:21.858Z,15.95
2022-11-11T10:43:19.569Z,15.58
2022-11-11T10:46:31.064Z,15.47
2022-11-11T10:49:24.119Z,15.27
2022-11-11T10:52:20.679Z,15.10
2022-11-11T10:55:12.910Z,14.92
2022-11-11T10:58:13.003Z,14.86
2022-11-11T11:01:02.646Z,14.90
2022-11-11T11:04:12.192Z,14.98
2022-11-11T11:07:01.879Z,14.97
2022-11-11T11:10:02.765Z,14.88
2022-11-11T11:13:06.235Z,14.67
2022-11-11T11:15:58.033Z,14.56
2022-11-11T11:18:44.549Z,14.72
2022-11-11T11:21:47.815Z,14.74
2022-11-11T11:24:43.707Z,14.76
2022-11-11T11:27:30.328Z,14.72
2022-11-11T11:30:19.638Z,14.88
2022-11-11T11:33:08.042Z,15.00
2022-11-11T11:35:53.729Z,15.15
2022-11-11T11:38:41.668Z,15.24
2022-11-11T11:41:52.047Z,15.27
2022-11-11T11:44:38.869Z,15.27
2022-11-11T11:47:44.159Z,15.23
2022-11-11T11:50:35.529Z,15.17
2022-11-11T11:53:36.031Z,15.21
2022-11-11T11:56:27.522Z,15.20
2022-11-11T11:59:38.026Z,15.05
2022-11-11T12:03:08.723Z,15.14
2022-11-11T12:06:12.852Z,15.19
2022-11-11T12:09:34.330Z,15.29
2022-11-11T12:12:37.348Z,15.39
2022-11-11T12:15:38.249Z,15.38
2022-11-11T12:18:53.156Z,15.36
2022-11-11T12:22:03.439Z,15.34
2022-11-11T12:25:14.007Z,15.24
2022-11-11T12:28:15.214Z,15.15
2022-11-11T12:31:27.175Z,15.30
2022-11-11T12:34:23.007Z,15.32
2022-11-11T12:37:12.000Z,15.31
2022-11-11T12:40:16.474Z,15.34
2022-11-11T12:43:29.688Z,15.40
2022-11-11T12:46:37.835Z,15.34
2022-11-11T12:49:50.289Z,15.41
2022-11-11T12:52:51.448Z,15.34
2022-11-11T12:55:57.388Z,15.31
2022-11-11T12:59:20.428Z,15.56
2022-11-11T13:02:09.066Z,15.52
2022-11-11T13:05:16.385Z,15.44
2022-11-11T13:08:40.663Z,15.36
2022-11-11T13:11:54.207Z,15.50
2022-11-11T13:14:55.804Z,15.44
2022-11-11T13:17:44.684Z,15.51
2022-11-11T13:20:52.232Z,15.49
2022-11-11T13:23:38.219Z,15.31
2022-11-11T13:26:32.605Z,15.29
2022-11-11T13:29:32.762Z,15.39
2022-11-11T13:32:25.220Z,15.36
2022-11-11T13:35:22.139Z,15.35
2022-11-11T13:38:23.523Z,15.36
2022-11-11T13:41:10.359Z,15.38
2022-11-11T13:44:01.748Z,15.38
2022-11-11T13:46:50.118Z,15.61
2022-11-11T13:49:43.757Z,15.36
2022-11-11T13:52:38.066Z,15.37
2022-11-11T13:55:31.526Z,15.57
2022-11-11T13:58:27.849Z,15.45
2022-11-11T14:01:16.297Z,15.44
2022-11-11T14:04:07.987Z,15.40
2022-11-11T14:06:54.535Z,15.36
2022-11-11T14:09:54.230Z,15.40
2022-11-11T14:12:42.087Z,15.46
2022-11-11T14:15:50.175Z,15.59
2022-11-11T14:18:41.025Z,15.44
2022-11-11T14:21:58.790Z,15.46
2022-11-11T14:24:46.644Z,15.49
2022-11-11T14:27:34.181Z,15.47
2022-11-11T14:30:36.565Z,15.42
2022-11-11T14:33:47.228Z,15.46
2022-11-11T14:37:08.872Z,15.38
2022-11-11T14:39:56.050Z,15.33
2022-11-11T14:42:44.655Z,15.19
2022-11-11T14:45:30.655Z,15.25
2022-11-11T14:48:50.310Z,15.06
2022-11-11T14:51:50.254Z,14.89
2022-11-11T14:54:50.845Z,14.81
2022-11-11T14:57:48.489Z,14.81
2022-11-11T15:00:48.228Z,14.67
2022-11-11T15:03:49.924Z,14.61
2022-11-11T15:06:44.277Z,14.53
2022-11-11T15:09:45.400Z,14.42
2022-11-11T15:12:54.147Z,14.24
2022-11-11T15:15:40.044Z,14.08
2022-11-11T15:18:51.332Z,13.83
2022-11-11T15:21:46.486Z,13.71
2022-11-11T15:24:44.351Z,13.63
2022-11-11T15:27:40.456Z,13.41
2022-11-11T15:30:55.425Z,13.32
2022-11-11T15:33:52.907Z,13.16
2022-11-11T15:37:00.051Z,13.08
2022-11-11T15:39:53.120Z,13.02
2022-11-11T15:42:45.995Z,12.92
2022-11-11T15:45:34.877Z,12.82
2022-11-11T15:48:28.583Z,12.65
2022-11-11T15:51:25.893Z,12.63
2022-11-11T15:54:26.465Z,12.45
2022-11-11T15:57:22.852Z,12.36
2022-11-11T16:00:25.062Z,12.23
2022-11-11T16:03:17.224Z,12.22
2022-11-11T16:06:07.583Z,12.09
2022-11-11T16:08:56.593Z,11.98
2022-11-11T16:11:43.339Z,11.87
2022-11-11T16:14:40.118Z,11.83
2022-11-11T16:17:31.209Z,11.82
2022-11-11T16:20:21.240Z,11.77
2022-11-11T16:23:09.008Z,11.83
2022-11-11T16:25:57.888Z,11.68
2022-11-11T16:28:52.810Z,11.65
2022-11-11T16:31:44.703Z,11.60
2022-11-11T16:34:38.185Z,11.55
2022-11-11T16:37:24.428Z,11.45
2022-11-11T16:40:34.406Z,11.47
2022-11-11T16:43:27.967Z,11.45
2022-11-11T16:46:15.990Z,11.40
2022-11-11T16:49:16.620Z,11.32
2022-11-11T16:52:16.795Z,11.29
2022-11-11T16:55:03.114Z,11.23
2022-11-11T16:57:49.708Z,11.12
2022-11-11T17:00:38.447Z,11.16
2022-11-11T17:03:25.971Z,11.24
2022-11-11T17:06:12.354Z,11.28
2022-11-11T17:08:58.077Z,11.33
2022-11-11T17:11:46.220Z,11.35
2022-11-11T17:14:34.829Z,11.30
2022-11-11T17:17:21.236Z,11.22
2022-11-11T17:20:13.648Z,11.09
2022-11-11T17:22:59.612Z,11.03
2022-11-11T17:25:45.813Z,11.02
2022-11-11T17:28:36.605Z,11.00
2022-11-11T17:31:24.034Z,10.91
2022-11-11T17:34:10.379Z,10.92
2022-11-11T17:36:56.818Z,10.81
2022-11-11T17:39:45.146Z,10.73
2022-11-11T17:42:32.400Z,10.68
2022-11-11T17:45:18.195Z,10.63
2022-11-11T17:48:04.943Z,10.56
2022-11-11T17:50:50.715Z,10.50
2022-11-11T17:53:37.237Z,10.44
2022-11-11T17:56:26.626Z,10.38
2022-11-11T17:59:12.460Z,10.32
2022-11-11T18:01:58.990Z,10.30
2022-11-11T18:04:44.880Z,10.26
2022-11-11T18:07:30.391Z,10.22
2022-11-11T18:10:16.623Z,10.34
2022-11-11T18:13:02.346Z,10.35
2022-11-11T18:15:48.033Z,10.28
2022-11-11T18:18:34.544Z,10.18
2022-11-11T18:21:21.525Z,10.14
2022-11-11T18:24:08.933Z,10.02
2022-11-11T18:26:54.638Z,10.07
2022-11-11T18:29:41.053Z,9.98
2022-11-11T18:32:27.291Z,9.97
2022-11-11T18:35:13.655Z,9.86
2022-11-11T18:37:59.783Z,9.93
2022-11-11T18:40:45.545Z,9.97
2022-11-11T18:43:44.209Z,9.88
2022-11-11T18:46:30.292Z,9.80
2022-11-11T18:49:16.279Z,9.82
2022-11-11T18:52:01.879Z,9.80
2022-11-11T18:54:47.781Z,9.86
2022-11-11T18:57:33.934Z,9.90
2022-11-11T19:00:21.492Z,9.93
2022-11-11T19:03:07.507Z,9.96
2022-11-11T19:05:52.991Z,9.92
2022-11-11T19:08:39.219Z,9.93
2022-11-11T19:11:26.455Z,9.79
2022-11-11T19:14:17.380Z,9.71
2022-11-11T19:17:06.443Z,9.59
2022-11-11T19:19:55.389Z,9.57
2022-11-11T19:22:41.332Z,9.55
2022-11-11T19:25:27.143Z,9.55
2022-11-11T19:28:12.912Z,9.47
2022-11-11T19:31:06.623Z,9.38
2022-11-11T19:33:54.652Z,9.45
2022-11-11T19:36:40.950Z,9.32
2022-11-11T19:39:26.714Z,9.36
2022-11-11T19:42:12.611Z,9.42
2022-11-11T19:45:00.003Z,9.42
2022-11-11T19:47:48.836Z,9.39
2022-11-11T19:50:34.732Z,9.42
2022-11-11T19:53:20.685Z,9.41
2022-11-11T19:56:11.706Z,9.42
2022-11-11T19:58:58.183Z,9.36
2022-11-11T20:01:43.971Z,9.34
2022-11-11T20:04:30.340Z,9.26
2022-11-11T20:07:16.592Z,9.39
2022-11-11T20:10:03.398Z,9.32
2022-11-11T20:12:53.575Z,9.30
2022-11-11T20:15:41.767Z,9.19
2022-11-11T20:18:30.116Z,9.32
2022-11-11T20:21:17.308Z,9.19
2022-11-11T20:24:05.695Z,9.09
2022-11-11T20:26:54.078Z,9.02
2022-11-11T20:29:41.068Z,9.02
2022-11-11T20:32:28.346Z,8.96
2022-11-11T20:35:14.964Z,8.91
2022-11-11T20:38:01.977Z,8.94
2022-11-11T20:40:59.961Z,8.90
2022-11-11T20:43:47.263Z,8.79
2022-11-11T20:46:33.920Z,8.72
2022-11-11T20:49:21.441Z,8.71
2022-11-11T20:52:07.747Z,8.81
2022-11-11T20:54:54.629Z,8.74
2022-11-11T20:57:42.095Z,8.83
2022-11-11T21:00:29.114Z,8.81
2022-11-11T21:03:14.796Z,8.68
2022-11-11T21:06:08.437Z,8.69
2022-11-11T21:08:54.754Z,8.66
2022-11-11T21:11:40.733Z,8.79
2022-11-11T21:14:26.598Z,8.79
2022-11-11T21:17:12.904Z,8.61
2022-11-11T21:19:58.621Z,8.70
2022-11-11T21:22:44.737Z,8.62
2022-11-11T21:25:35.326Z,8.60
2022-11-11T21:28:22.565Z,8.61
2022-11-11T21:31:16.278Z,8.55
2022-11-11T21:34:09.132Z,8.55
2022-11-11T21:36:55.111Z,8.51
2022-11-11T21:39:42.084Z,8.35
2022-11-11T21:42:28.959Z,8.28
2022-11-11T21:45:15.711Z,8.47
2022-11-11T21:48:01.877Z,8.34
2022-11-11T21:50:48.445Z,8.35
2022-11-11T21:53:36.237Z,8.25
2022-11-11T21:56:23.634Z,8.39
2022-11-11T21:59:10.384Z,8.34
2022-11-11T22:01:57.512Z,8.34
2022-11-11T22:04:43.968Z,8.26
2022-11-11T22:07:30.164Z,8.22
2022-11-11T22:10:16.864Z,8.31
2022-11-11T22:13:03.880Z,8.11
2022-11-11T22:15:58.369Z,8.24
2022-11-11T22:18:44.962Z,8.22
2022-11-11T22:21:37.088Z,8.10
2022-11-11T22:24:23.324Z,8.11
2022-11-11T22:27:09.115Z,8.09
2022-11-11T22:29:54.854Z,8.17
2022-11-11T22:32:40.847Z,8.10
2022-11-11T22:35:27.531Z,8.12
2022-11-11T22:38:15.585Z,8.06
2022-11-11T22:41:12.796Z,8.14
2022-11-11T22:44:01.101Z,8.04
2022-11-11T22:46:48.068Z,7.97
2022-11-11T22:49:35.574Z,8.05
2022-11-11T22:52:22.771Z,7.97
2022-11-11T22:55:11.314Z,7.91
2022-11-11T22:57:58.269Z,7.92
2022-11-11T23:00:44.586Z,7.87
2022-11-11T23:03:40.127Z,7.86
2022-11-11T23:06:31.039Z,7.91
2022-11-11T23:09:17.266Z,7.92
2022-11-11T23:12:05.154Z,7.78
2022-11-11T23:14:51.875Z,7.84
2022-11-11T23:17:38.736Z,7.72
2022-11-11T23:20:26.185Z,7.74
2022-11-11T23:23:13.487Z,7.72
2022-11-11T23:26:08.416Z,7.74
2022-11-11T23:28:56.313Z,7.77
2022-11-11T23:31:42.666Z,7.76
2022-11-11T23:34:29.905Z,7.65
2022-11-11T23:37:16.324Z,7.57
2022-11-11T23:40:02.380Z,7.65
2022-11-11T23:42:48.377Z,7.72
2022-11-11T23:45:34.115Z,7.65
2022-11-11T23:48:20.876Z,7.69
2022-11-11T23:51:07.071Z,7.71
2022-11-11T23:53:53.036Z,7.71
2022-11-11T23:56:39.333Z,7.70
2022-11-11T23:59:25.633Z,7.77
